createdAt,value
2022-08-31T00:00:10.400Z,19.99
2022-08-31T00:02:56.534Z,20.01
2022-08-31T00:05:23.403Z,19.96
2022-08-31T00:07:50.230Z,19.98
2022-08-31T00:10:20.068Z,19.92
2022-08-31T00:12:58.756Z,19.93
2022-08-31T00:15:26.014Z,19.92
2022-08-31T00:17:53.605Z,19.88
2022-08-31T00:20:33.322Z,19.90
2022-08-31T00:23:11.325Z,19.91
2022-08-31T00:25:39.711Z,19.93
2022-08-31T00:28:07.469Z,19.92
2022-08-31T00:30:34.735Z,19.91
2022-08-31T00:33:02.467Z,19.90
2022-08-31T00:35:30.698Z,19.86
2022-08-31T00:38:00.239Z,19.90
2022-08-31T00:40:27.502Z,19.88
2022-08-31T00:42:54.751Z,19.85
2022-08-31T00:45:22.085Z,19.85
2022-08-31T00:47:49.012Z,19.82
2022-08-31T00:50:18.156Z,19.80
2022-08-31T00:52:50.964Z,19.77
2022-08-31T00:55:30.082Z,19.79
2022-08-31T00:57:59.892Z,19.78
2022-08-31T01:00:28.322Z,19.74
2022-08-31T01:03:01.881Z,19.74
2022-08-31T01:05:30.986Z,19.73
2022-08-31T01:07:59.461Z,19.69
2022-08-31T01:10:30.661Z,19.69
2022-08-31T01:12:58.286Z,19.65
2022-08-31T01:15:25.826Z,19.62
2022-08-31T01:17:55.200Z,19.62
2022-08-31T01:20:50.808Z,19.58
2022-08-31T01:23:22.330Z,19.55
2022-08-31T01:25:51.474Z,19.54
2022-08-31T01:28:18.428Z,19.56
2022-08-31T01:31:06.248Z,19.51
2022-08-31T01:33:35.186Z,19.45
2022-08-31T01:36:03.611Z,19.41
2022-08-31T01:38:31.738Z,19.35
2022-08-31T01:41:02.348Z,19.35
2022-08-31T01:43:33.895Z,19.33
2022-08-31T01:46:03.447Z,19.28
2022-08-31T01:48:32.458Z,19.28
2022-08-31T01:50:59.160Z,19.24
2022-08-31T01:53:26.035Z,19.21
2022-08-31T01:55:53.124Z,19.14
2022-08-31T01:58:19.995Z,19.09
2022-08-31T02:01:17.246Z,19.04
2022-08-31T02:03:57.187Z,19.03
2022-08-31T02:06:24.784Z,19.06
2022-08-31T02:08:51.502Z,19.08
2022-08-31T02:11:18.538Z,19.11
2022-08-31T02:13:45.837Z,19.04
2022-08-31T02:16:14.858Z,19.02
2022-08-31T02:18:41.775Z,19.01
2022-08-31T02:21:08.573Z,19.00
2022-08-31T02:23:35.251Z,19.03
2022-08-31T02:26:01.931Z,19.03
2022-08-31T02:28:28.763Z,19.00
2022-08-31T02:30:55.630Z,18.98
2022-08-31T02:33:22.457Z,18.93
2022-08-31T02:35:50.303Z,18.94
2022-08-31T02:38:23.035Z,18.96
2022-08-31T02:40:51.528Z,18.98
2022-08-31T02:43:24.630Z,19.00
2022-08-31T02:45:53.893Z,19.00
2022-08-31T02:48:26.004Z,18.96
2022-08-31T02:50:53.480Z,18.92
2022-08-31T02:53:22.999Z,18.89
2022-08-31T02:55:50.078Z,18.80
2022-08-31T02:58:20.671Z,18.71
2022-08-31T03:00:50.392Z,18.56
2022-08-31T03:03:17.381Z,18.35
2022-08-31T03:05:44.718Z,18.20
2022-08-31T03:08:11.449Z,18.16
2022-08-31T03:10:38.578Z,18.15
2022-08-31T03:13:05.509Z,18.15
2022-08-31T03:15:32.408Z,18.20
2022-08-31T03:18:06.657Z,18.25
2022-08-31T03:20:35.185Z,18.29
2022-08-31T03:23:05.938Z,18.31
2022-08-31T03:25:33.004Z,18.30
2022-08-31T03:27:59.684Z,18.39
2022-08-31T03:30:31.432Z,18.44
2022-08-31T03:33:06.185Z,18.46
2022-08-31T03:35:34.832Z,18.50
2022-08-31T03:38:02.631Z,18.53
2022-08-31T03:40:30.226Z,18.58
2022-08-31T03:42:58.889Z,18.60
2022-08-31T03:45:27.833Z,18.64
2022-08-31T03:47:54.866Z,18.65
2022-08-31T03:50:23.649Z,18.61
2022-08-31T03:53:04.205Z,18.62
2022-08-31T03:55:32.678Z,18.59
2022-08-31T03:58:00.405Z,18.58
2022-08-31T04:00:28.528Z,18.55
2022-08-31T04:03:01.698Z,18.53
2022-08-31T04:05:34.553Z,18.51
2022-08-31T04:08:20.976Z,18.49
2022-08-31T04:11:12.186Z,18.44
2022-08-31T04:13:57.095Z,18.41
2022-08-31T04:16:43.812Z,18.32
2022-08-31T04:19:42.943Z,18.22
2022-08-31T04:22:26.105Z,18.18
2022-08-31T04:25:21.994Z,18.15
2022-08-31T04:27:50.329Z,18.12
2022-08-31T04:30:18.160Z,18.06
2022-08-31T04:32:44.834Z,18.01
2022-08-31T04:35:11.657Z,17.99
2022-08-31T04:37:46.363Z,17.97
2022-08-31T04:40:19.824Z,17.99
2022-08-31T04:42:47.938Z,17.97
2022-08-31T04:45:16.353Z,17.99
2022-08-31T04:47:43.983Z,18.01
2022-08-31T04:50:13.196Z,18.01
2022-08-31T04:53:03.799Z,18.02
2022-08-31T04:55:32.014Z,18.02
2022-08-31T04:57:58.804Z,18.08
2022-08-31T05:00:25.933Z,18.07
2022-08-31T05:03:10.960Z,18.08
2022-08-31T05:05:39.530Z,18.07
2022-08-31T05:08:06.835Z,18.08
2022-08-31T05:10:34.446Z,18.05
2022-08-31T05:13:02.446Z,18.04
2022-08-31T05:15:30.853Z,18.03
2022-08-31T05:17:57.520Z,18.04
2022-08-31T05:20:25.146Z,18.04
2022-08-31T05:22:51.805Z,18.04
2022-08-31T05:25:18.508Z,18.04
2022-08-31T05:27:45.174Z,18.05
2022-08-31T05:30:12.711Z,18.03
2022-08-31T05:32:41.851Z,18.02
2022-08-31T05:35:10.895Z,17.96
2022-08-31T05:37:40.184Z,17.98
2022-08-31T05:40:09.029Z,18.00
2022-08-31T05:42:36.219Z,17.98
2022-08-31T05:45:02.948Z,18.02
2022-08-31T05:47:30.471Z,18.03
2022-08-31T05:49:57.531Z,18.01
2022-08-31T05:52:25.041Z,18.00
2022-08-31T05:54:53.657Z,18.02
2022-08-31T05:57:23.423Z,18.02
2022-08-31T05:59:53.104Z,18.02
2022-08-31T06:02:21.026Z,18.00
2022-08-31T06:04:48.550Z,18.01
2022-08-31T06:07:20.002Z,18.01
2022-08-31T06:09:53.575Z,18.01
2022-08-31T06:12:22.902Z,18.05
2022-08-31T06:14:53.260Z,18.04
2022-08-31T06:17:20.395Z,18.04
2022-08-31T06:19:47.366Z,17.98
2022-08-31T06:22:14.305Z,17.97
2022-08-31T06:24:41.039Z,17.95
2022-08-31T06:27:07.653Z,17.95
2022-08-31T06:29:36.748Z,17.94
2022-08-31T06:32:10.247Z,17.95
2022-08-31T06:34:47.193Z,17.94
2022-08-31T06:37:34.293Z,17.95
2022-08-31T06:40:15.287Z,17.97
2022-08-31T06:43:00.543Z,17.96
2022-08-31T06:45:30.582Z,17.95
2022-08-31T06:48:13.710Z,17.98
2022-08-31T06:50:41.956Z,18.01
2022-08-31T06:53:09.740Z,18.03
2022-08-31T06:55:54.936Z,18.02
2022-08-31T06:58:40.602Z,18.06
2022-08-31T07:01:36.195Z,18.06
2022-08-31T07:04:12.232Z,18.10
2022-08-31T07:06:41.783Z,18.14
2022-08-31T07:09:12.382Z,18.15
2022-08-31T07:11:44.496Z,18.13
2022-08-31T07:14:15.407Z,18.10
2022-08-31T07:16:44.000Z,18.02
2022-08-31T07:19:12.691Z,18.06
2022-08-31T07:21:46.235Z,18.07
2022-08-31T07:24:15.515Z,18.04
2022-08-31T07:26:45.002Z,18.08
2022-08-31T07:29:15.032Z,18.09
2022-08-31T07:31:48.569Z,18.07
2022-08-31T07:34:19.474Z,18.07
2022-08-31T07:37:25.526Z,17.99
2022-08-31T07:40:12.935Z,17.91
2022-08-31T07:42:46.986Z,17.83
2022-08-31T07:45:23.298Z,17.81
2022-08-31T07:47:53.595Z,17.84
2022-08-31T07:50:22.984Z,17.87
2022-08-31T07:53:08.665Z,17.86
2022-08-31T07:55:48.063Z,17.86
2022-08-31T07:58:34.957Z,17.88
2022-08-31T08:01:04.162Z,17.86
2022-08-31T08:03:30.818Z,17.86
2022-08-31T08:06:17.760Z,17.84
2022-08-31T08:09:24.744Z,17.79
2022-08-31T08:12:06.475Z,17.76
2022-08-31T08:14:59.253Z,17.74
2022-08-31T08:17:48.864Z,17.73
2022-08-31T08:20:21.783Z,17.69
2022-08-31T08:23:08.139Z,17.71
2022-08-31T08:26:01.464Z,17.70
2022-08-31T08:28:51.316Z,17.65
2022-08-31T08:31:19.846Z,17.66
2022-08-31T08:33:47.689Z,17.68
2022-08-31T08:36:18.254Z,17.67
2022-08-31T08:38:48.462Z,17.67
2022-08-31T08:41:19.995Z,17.73
2022-08-31T08:43:52.391Z,17.71
2022-08-31T08:46:34.763Z,17.68
2022-08-31T08:49:50.858Z,17.69
2022-08-31T08:52:31.833Z,17.65
2022-08-31T08:55:06.340Z,17.67
2022-08-31T08:57:41.256Z,17.67
2022-08-31T09:00:14.619Z,17.66
2022-08-31T09:02:58.389Z,17.65
2022-08-31T09:06:01.932Z,17.62
2022-08-31T09:08:55.181Z,17.61
2022-08-31T09:11:50.044Z,17.57
2022-08-31T09:14:38.969Z,17.53
2022-08-31T09:17:09.603Z,17.51
2022-08-31T09:20:12.973Z,17.49
2022-08-31T09:22:50.994Z,17.48
2022-08-31T09:25:29.844Z,17.49
2022-08-31T09:28:15.281Z,17.50
2022-08-31T09:30:45.109Z,17.49
2022-08-31T09:33:35.666Z,17.51
2022-08-31T09:36:22.549Z,17.51
2022-08-31T09:38:50.329Z,17.52
2022-08-31T09:41:28.908Z,17.55
2022-08-31T09:44:24.972Z,17.56
2022-08-31T09:46:56.518Z,17.54
2022-08-31T09:49:29.447Z,17.55
2022-08-31T09:52:14.834Z,17.55
2022-08-31T09:55:00.493Z,17.56
2022-08-31T09:57:53.245Z,17.55
2022-08-31T10:00:45.030Z,17.58
2022-08-31T10:03:20.961Z,17.64
2022-08-31T10:05:50.592Z,17.67
2022-08-31T10:08:35.640Z,17.67
2022-08-31T10:11:12.984Z,17.71
2022-08-31T10:13:57.149Z,17.77
2022-08-31T10:16:30.576Z,17.83
2022-08-31T10:19:04.598Z,17.86
2022-08-31T10:21:38.997Z,17.91
2022-08-31T10:24:28.058Z,17.96
2022-08-31T10:27:08.244Z,18.12
2022-08-31T10:29:40.314Z,18.17
2022-08-31T10:32:18.960Z,18.28
2022-08-31T10:35:07.386Z,18.28
2022-08-31T10:37:55.489Z,18.28
2022-08-31T10:40:32.078Z,18.34
2022-08-31T10:43:22.029Z,18.38
2022-08-31T10:45:52.582Z,18.44
2022-08-31T10:48:23.458Z,18.51
2022-08-31T10:51:05.817Z,18.59
2022-08-31T10:53:53.198Z,18.71
2022-08-31T10:56:41.299Z,18.77
2022-08-31T10:59:24.655Z,18.88
2022-08-31T11:01:57.071Z,18.98
2022-08-31T11:04:45.237Z,19.09
2022-08-31T11:07:25.066Z,19.23
2022-08-31T11:10:12.954Z,19.32
2022-08-31T11:12:45.984Z,19.45
2022-08-31T11:15:25.648Z,19.57
2022-08-31T11:18:36.182Z,19.72
2022-08-31T11:21:15.691Z,19.91
2022-08-31T11:24:20.592Z,20.29
2022-08-31T11:26:55.012Z,20.75
2022-08-31T11:29:30.355Z,21.04
2022-08-31T11:32:04.590Z,21.14
2022-08-31T11:34:47.070Z,21.28
2022-08-31T11:37:56.079Z,21.40
2022-08-31T11:40:59.697Z,21.49
2022-08-31T11:43:32.077Z,21.51
2022-08-31T11:46:23.925Z,21.58
2022-08-31T11:48:56.442Z,21.60
2022-08-31T11:51:40.122Z,21.53
2022-08-31T11:54:42.977Z,21.47
2022-08-31T11:57:15.524Z,21.49
2022-08-31T11:59:46.316Z,21.48
2022-08-31T12:02:23.098Z,21.38
2022-08-31T12:04:52.228Z,21.32
2022-08-31T12:07:27.960Z,21.28
2022-08-31T12:10:27.547Z,21.30
2022-08-31T12:13:18.716Z,21.36
2022-08-31T12:16:19.185Z,21.33
2022-08-31T12:18:59.563Z,21.42
2022-08-31T12:21:44.610Z,21.60
2022-08-31T12:24:23.366Z,21.99
2022-08-31T12:27:14.627Z,22.28
2022-08-31T12:29:41.635Z,22.66
2022-08-31T12:32:31.453Z,23.07
2022-08-31T12:35:23.302Z,23.81
2022-08-31T12:38:02.739Z,24.48
2022-08-31T12:40:33.827Z,25.14
2022-08-31T12:43:09.972Z,25.20
2022-08-31T12:45:36.522Z,24.97
2022-08-31T12:48:23.381Z,24.63
2022-08-31T12:51:26.831Z,24.64
2022-08-31T12:54:13.344Z,25.24
2022-08-31T12:57:04.600Z,25.35
2022-08-31T12:59:57.460Z,24.92
2022-08-31T13:02:20.767Z,24.35
2022-08-31T13:04:48.426Z,24.13
2022-08-31T13:07:28.619Z,24.51
2022-08-31T13:10:15.816Z,25.07
2022-08-31T13:12:54.517Z,25.20
2022-08-31T13:15:39.357Z,24.81
2022-08-31T13:18:21.857Z,24.38
2022-08-31T13:20:54.542Z,24.55
2022-08-31T13:23:30.681Z,24.86
2022-08-31T13:26:02.714Z,25.16
2022-08-31T13:28:35.068Z,25.49
2022-08-31T13:31:09.217Z,25.89
2022-08-31T13:33:40.146Z,26.29
2022-08-31T13:36:12.523Z,26.30
2022-08-31T13:38:50.672Z,25.91
2022-08-31T13:41:30.119Z,25.45
2022-08-31T13:44:02.627Z,25.47
2022-08-31T13:46:43.382Z,25.75
2022-08-31T13:49:30.943Z,26.10
2022-08-31T13:51:58.191Z,26.41
2022-08-31T13:54:29.267Z,26.70
2022-08-31T13:56:56.132Z,27.02
2022-08-31T13:59:26.602Z,27.34
2022-08-31T14:02:01.238Z,27.51
2022-08-31T14:04:46.476Z,27.75
2022-08-31T14:07:25.847Z,27.92
2022-08-31T14:09:57.587Z,28.03
2022-08-31T14:12:43.805Z,27.91
2022-08-31T14:15:10.373Z,27.48
2022-08-31T14:21:16.749Z,26.81
2022-08-31T14:23:38.659Z,26.06
2022-08-31T14:26:12.396Z,25.59
2022-08-31T14:28:43.210Z,25.06
2022-08-31T14:31:22.341Z,24.58
2022-08-31T14:33:55.927Z,24.22
2022-08-31T14:36:25.483Z,23.89
2022-08-31T14:38:55.386Z,23.65
2022-08-31T14:41:30.373Z,23.43
2022-08-31T14:44:10.396Z,23.24
2022-08-31T14:46:39.004Z,23.12
2022-08-31T14:49:07.334Z,23.03
2022-08-31T14:51:37.485Z,22.97
2022-08-31T14:54:07.527Z,22.87
2022-08-31T14:56:38.930Z,22.91
2022-08-31T14:59:12.557Z,23.15
2022-08-31T15:01:42.070Z,23.87
2022-08-31T15:04:08.946Z,24.55
2022-08-31T15:06:35.716Z,24.93
2022-08-31T15:09:04.643Z,24.81
2022-08-31T15:11:35.431Z,24.48
2022-08-31T15:14:04.855Z,24.20
2022-08-31T15:16:31.885Z,24.24
2022-08-31T15:18:59.347Z,24.19
2022-08-31T15:21:26.605Z,23.89
2022-08-31T15:23:53.429Z,23.67
2022-08-31T15:26:21.709Z,23.41
2022-08-31T15:31:27.120Z,23.00
2022-08-31T15:34:00.002Z,22.85
2022-08-31T15:36:27.742Z,22.74
2022-08-31T15:38:57.139Z,22.63
2022-08-31T15:41:27.404Z,22.53
2022-08-31T15:43:54.514Z,22.37
2022-08-31T15:46:41.589Z,22.29
2022-08-31T15:49:10.357Z,22.14
2022-08-31T15:51:49.058Z,22.03
2022-08-31T15:54:22.454Z,22.14
2022-08-31T15:56:55.551Z,22.23
2022-08-31T15:59:23.011Z,22.17
2022-08-31T16:01:51.810Z,22.08
2022-08-31T16:04:23.555Z,22.04
2022-08-31T16:06:51.987Z,21.98
2022-08-31T16:09:21.278Z,22.22
2022-08-31T16:11:50.290Z,22.57
2022-08-31T16:14:17.861Z,22.97
2022-08-31T16:16:47.934Z,23.13
2022-08-31T16:19:33.633Z,23.13
2022-08-31T16:22:06.076Z,23.34
2022-08-31T16:24:37.380Z,23.63
2022-08-31T16:27:11.542Z,24.11
2022-08-31T16:29:39.389Z,24.52
2022-08-31T16:32:06.945Z,24.72
2022-08-31T16:34:35.046Z,24.83
2022-08-31T16:37:09.492Z,24.91
2022-08-31T16:39:38.719Z,24.91
2022-08-31T16:42:07.901Z,24.94
2022-08-31T16:44:36.538Z,24.93
2022-08-31T16:47:05.246Z,24.88
2022-08-31T16:49:36.058Z,24.65
2022-08-31T16:52:11.517Z,24.46
2022-08-31T16:54:42.824Z,24.28
2022-08-31T16:57:10.939Z,24.07
2022-08-31T16:59:37.740Z,23.86
2022-08-31T17:02:04.598Z,23.44
2022-08-31T17:07:18.751Z,22.79
2022-08-31T17:09:46.239Z,22.54
2022-08-31T17:12:17.222Z,22.40
2022-08-31T17:14:48.417Z,22.26
2022-08-31T17:17:19.417Z,22.14
2022-08-31T17:19:47.162Z,22.05
2022-08-31T17:22:23.361Z,21.98
2022-08-31T17:24:51.648Z,21.82
2022-08-31T17:27:21.072Z,21.67
2022-08-31T17:29:52.020Z,21.56
2022-08-31T17:32:23.359Z,21.37
2022-08-31T17:34:51.795Z,21.11
2022-08-31T17:37:32.858Z,20.85
2022-08-31T17:40:00.498Z,20.57
2022-08-31T17:42:28.329Z,20.38
2022-08-31T17:44:56.990Z,20.22
2022-08-31T17:47:25.973Z,20.11
2022-08-31T17:49:53.045Z,20.00
2022-08-31T17:52:21.723Z,19.94
2022-08-31T17:54:51.222Z,19.87
2022-08-31T17:57:22.371Z,19.79
2022-08-31T17:59:49.616Z,19.68
2022-08-31T18:02:26.632Z,19.63
2022-08-31T18:04:53.610Z,19.51
2022-08-31T18:07:20.864Z,19.46
2022-08-31T18:09:47.688Z,19.39
2022-08-31T18:12:16.529Z,19.33
2022-08-31T18:14:44.349Z,19.30
2022-08-31T18:17:16.301Z,19.27
2022-08-31T18:19:46.583Z,19.27
2022-08-31T18:22:14.593Z,19.24
2022-08-31T18:24:43.190Z,19.21
2022-08-31T18:27:11.725Z,19.17
2022-08-31T18:29:39.535Z,19.19
2022-08-31T18:32:08.087Z,19.18
2022-08-31T18:34:40.526Z,19.20
2022-08-31T18:37:09.369Z,19.18
2022-08-31T18:39:59.035Z,19.19
2022-08-31T18:42:46.098Z,19.20
2022-08-31T18:45:15.981Z,19.16
2022-08-31T18:47:43.456Z,19.09
2022-08-31T18:50:10.766Z,19.12
2022-08-31T18:52:40.406Z,19.13
2022-08-31T18:55:15.871Z,19.10
2022-08-31T18:57:49.126Z,19.11
2022-08-31T19:00:18.009Z,18.93
2022-08-31T19:02:45.373Z,19.13
2022-08-31T19:05:14.701Z,19.12
2022-08-31T19:07:42.437Z,19.11
2022-08-31T19:10:13.030Z,19.10
2022-08-31T19:12:42.880Z,19.10
2022-08-31T19:15:11.589Z,19.10
2022-08-31T19:17:40.449Z,19.10
2022-08-31T19:20:10.192Z,19.06
2022-08-31T19:22:38.323Z,19.00
2022-08-31T19:25:07.477Z,18.95
2022-08-31T19:27:35.520Z,18.89
2022-08-31T19:30:06.371Z,18.78
2022-08-31T19:32:34.288Z,18.77
2022-08-31T19:35:01.079Z,18.76
2022-08-31T19:37:28.096Z,18.71
2022-08-31T19:39:55.203Z,18.64
2022-08-31T19:42:39.794Z,18.61
2022-08-31T19:45:24.403Z,18.53
2022-08-31T19:47:52.042Z,18.46
2022-08-31T19:50:19.073Z,18.35
2022-08-31T19:52:46.379Z,18.27
2022-08-31T19:55:14.031Z,18.19
2022-08-31T19:57:43.747Z,18.08
2022-08-31T20:00:11.847Z,18.05
2022-08-31T20:02:42.363Z,18.00
2022-08-31T20:05:09.889Z,17.98
2022-08-31T20:07:36.673Z,17.96
2022-08-31T20:10:04.367Z,17.97
2022-08-31T20:12:31.422Z,17.93
2022-08-31T20:14:58.298Z,17.91
2022-08-31T20:17:25.459Z,17.86
2022-08-31T20:19:54.949Z,17.80
2022-08-31T20:22:23.647Z,17.79
2022-08-31T20:24:53.075Z,17.80
2022-08-31T20:27:20.026Z,17.77
2022-08-31T20:29:47.121Z,17.79
2022-08-31T20:32:13.902Z,17.78
2022-08-31T20:34:40.633Z,17.73
2022-08-31T20:37:07.652Z,17.65
2022-08-31T20:39:35.621Z,17.60
2022-08-31T20:42:03.450Z,17.58
2022-08-31T20:44:36.062Z,17.58
2022-08-31T20:47:25.483Z,17.58
2022-08-31T20:49:55.254Z,17.55
2022-08-31T20:52:25.559Z,17.53
2022-08-31T20:55:01.425Z,17.50
2022-08-31T20:57:30.197Z,17.48
2022-08-31T20:59:56.771Z,17.41
2022-08-31T21:02:23.965Z,17.32
2022-08-31T21:04:50.670Z,17.23
2022-08-31T21:07:23.291Z,17.13
2022-08-31T21:09:50.461Z,17.03
2022-08-31T21:12:18.044Z,16.96
2022-08-31T21:14:45.621Z,16.92
2022-08-31T21:17:14.436Z,16.86
2022-08-31T21:19:41.914Z,16.82
2022-08-31T21:22:10.902Z,16.81
2022-08-31T21:24:41.855Z,16.77
2022-08-31T21:27:15.610Z,16.72
2022-08-31T21:29:46.871Z,16.68
2022-08-31T21:32:14.364Z,16.64
2022-08-31T21:34:40.982Z,16.55
2022-08-31T21:37:09.248Z,16.50
2022-08-31T21:39:36.487Z,16.47
2022-08-31T21:42:03.997Z,16.47
2022-08-31T21:44:30.624Z,16.43
2022-08-31T21:46:57.354Z,16.38
2022-08-31T21:49:24.091Z,16.34
2022-08-31T21:51:56.117Z,16.31
2022-08-31T21:54:27.354Z,16.27
2022-08-31T21:56:55.749Z,16.21
2022-08-31T21:59:24.841Z,16.13
2022-08-31T22:01:59.214Z,16.06
2022-08-31T22:04:31.739Z,16.04
2022-08-31T22:06:59.560Z,16.04
2022-08-31T22:09:28.912Z,16.03
2022-08-31T22:11:58.479Z,15.99
2022-08-31T22:14:29.336Z,15.97
2022-08-31T22:16:57.892Z,15.99
2022-08-31T22:19:27.127Z,15.97
2022-08-31T22:22:01.276Z,16.02
2022-08-31T22:24:31.036Z,16.00
2022-08-31T22:27:01.288Z,15.99
2022-08-31T22:29:30.946Z,16.04
2022-08-31T22:32:01.577Z,16.04
2022-08-31T22:34:28.542Z,16.09
2022-08-31T22:36:56.452Z,16.12
2022-08-31T22:39:27.912Z,16.14
2022-08-31T22:41:55.799Z,16.12
2022-08-31T22:44:25.005Z,16.12
2022-08-31T22:46:53.154Z,16.15
2022-08-31T22:49:19.843Z,16.13
2022-08-31T22:51:49.002Z,16.10
2022-08-31T22:54:19.774Z,16.08
2022-08-31T22:56:46.848Z,16.10
2022-08-31T22:59:17.721Z,16.10
2022-08-31T23:01:49.318Z,16.12
2022-08-31T23:04:19.952Z,16.14
2022-08-31T23:06:49.456Z,16.17
2022-08-31T23:09:20.992Z,16.18
2022-08-31T23:11:50.229Z,16.26
2022-08-31T23:14:17.379Z,16.28
2022-08-31T23:16:46.223Z,16.28
2022-08-31T23:19:19.145Z,16.29
2022-08-31T23:21:56.552Z,16.28
2022-08-31T23:24:35.429Z,16.29
2022-08-31T23:27:05.014Z,16.28
2022-08-31T23:29:53.560Z,16.27
2022-08-31T23:32:22.253Z,16.27
2022-08-31T23:34:52.614Z,16.29
2022-08-31T23:37:23.147Z,16.29
2022-08-31T23:39:54.379Z,16.27
2022-08-31T23:42:23.156Z,16.27
2022-08-31T23:44:50.047Z,16.29
2022-08-31T23:47:23.550Z,16.30
2022-08-31T23:49:51.253Z,16.31
2022-08-31T23:52:21.321Z,16.34
2022-08-31T23:54:50.914Z,16.36
2022-08-31T23:57:31.324Z,16.38
